Time;durP1;ratioP1;P1;durP2;ratioP2;P2;SDS_P1;SDS_P2;PMS_P1;PMS_P2;Temp;Humidity;BMP_temperature;BMP_pressure;BME280_temperature;BME280_humidity;BME280_pressure;Samples;Min_cycle;Max_cycle;Signal;HPM_P1;HPM_P2
2022/11/01 00:01:28;;;;;;;15.52;6.05;;;14.10;99.90;;;;;;5071204;28;20074;-74
2022/11/01 00:03:54;;;;;;;20.67;6.10;;;14.10;99.90;;;;;;5072382;28;20098;-71
2022/11/01 00:06:19;;;;;;;15.43;5.30;;;14.10;99.90;;;;;;5070957;28;20460;-71
2022/11/01 00:08:45;;;;;;;17.00;6.15;;;14.20;99.90;;;;;;5071205;28;20147;-72
2022/11/01 00:11:13;;;;;;;15.45;5.90;;;14.30;99.90;;;;;;5054844;28;20040;-72
2022/11/01 00:13:39;;;;;;;15.55;6.25;;;14.30;99.90;;;;;;5072271;28;20049;-73
2022/11/01 00:16:05;;;;;;;15.45;5.25;;;14.30;99.90;;;;;;5070631;28;20108;-74
2022/11/01 00:18:31;;;;;;;15.77;5.53;;;14.40;99.90;;;;;;5072050;28;20150;-74
2022/11/01 00:20:56;;;;;;;13.65;5.07;;;14.40;99.90;;;;;;5070754;28;20319;-72
2022/11/01 00:23:22;;;;;;;17.15;5.28;;;14.40;99.90;;;;;;5054115;28;20075;-71
2022/11/01 00:25:48;;;;;;;14.55;5.38;;;14.50;99.90;;;;;;5071067;28;20044;-72
2022/11/01 00:28:14;;;;;;;17.35;5.18;;;14.50;99.90;;;;;;5037713;28;20072;-71
2022/11/01 00:30:40;;;;;;;14.68;4.95;;;14.60;99.90;;;;;;5071539;28;20036;-72
2022/11/01 00:33:06;;;;;;;15.07;4.80;;;14.50;99.90;;;;;;5071889;28;20098;-72
2022/11/01 00:35:32;;;;;;;16.10;5.55;;;14.60;99.90;;;;;;5072191;28;20045;-72
2022/11/01 00:37:58;;;;;;;14.33;5.13;;;14.60;99.90;;;;;;5054667;28;20087;-72
2022/11/01 00:40:24;;;;;;;14.15;5.13;;;14.60;99.90;;;;;;5075872;28;20286;-72
2022/11/01 00:42:50;;;;;;;13.13;3.70;;;14.60;99.90;;;;;;5075719;28;20044;-73
2022/11/01 00:45:17;;;;;;;15.43;4.80;;;14.60;99.90;;;;;;5075747;28;20126;-71
2022/11/01 00:47:46;;;;;;;11.65;4.72;;;14.70;99.90;;;;;;5057758;28;20139;-72
2022/11/01 00:50:12;;;;;;;12.07;4.63;;;14.70;99.90;;;;;;5075492;28;20063;-76
2022/11/01 00:52:38;;;;;;;15.75;4.82;;;14.70;99.90;;;;;;5074333;28;20048;-75
2022/11/01 00:55:04;;;;;;;12.10;4.88;;;14.70;99.90;;;;;;5076068;28;20376;-78
2022/11/01 00:57:29;;;;;;;18.80;4.95;;;14.70;99.90;;;;;;5058366;28;20063;-74
2022/11/01 00:59:55;;;;;;;16.27;5.05;;;14.70;99.90;;;;;;5074043;28;20044;-75
2022/11/01 01:02:21;;;;;;;16.08;4.70;;;14.70;99.90;;;;;;5074485;28;20085;-76
2022/11/01 01:04:47;;;;;;;14.20;4.63;;;14.70;99.90;;;;;;5074151;28;20047;-72
2022/11/01 01:07:13;;;;;;;14.95;4.60;;;14.80;99.90;;;;;;5075893;28;20091;-73
2022/11/01 01:09:39;;;;;;;14.45;4.90;;;14.80;99.90;;;;;;5074085;28;20485;-73
2022/11/01 01:12:05;;;;;;;10.35;4.30;;;14.80;99.90;;;;;;5075412;28;20376;-74
2022/11/01 01:14:30;;;;;;;14.32;4.25;;;14.80;99.90;;;;;;5057948;28;20384;-73
2022/11/01 01:16:56;;;;;;;17.23;4.55;;;14.90;99.90;;;;;;5074649;28;20500;-80
2022/11/01 01:19:22;;;;;;;15.13;4.82;;;14.90;99.90;;;;;;5058687;28;20052;-71
2022/11/01 01:21:48;;;;;;;14.07;4.80;;;14.90;99.90;;;;;;5076337;28;20138;-74
2022/11/01 01:24:13;;;;;;;12.45;4.40;;;14.90;99.90;;;;;;5074540;28;20167;-73
2022/11/01 01:26:39;;;;;;;11.48;4.30;;;14.90;99.90;;;;;;5076670;28;20060;-74
2022/11/01 01:29:05;;;;;;;12.40;4.88;;;14.80;99.90;;;;;;5057435;28;20037;-75
2022/11/01 01:31:30;;;;;;;19.00;5.07;;;14.80;99.90;;;;;;5073881;28;20040;-74
2022/11/01 01:33:57;;;;;;;14.68;4.63;;;14.80;99.90;;;;;;5074528;28;20127;-73
2022/11/01 01:36:23;;;;;;;11.65;4.55;;;14.80;99.90;;;;;;5074180;28;20461;-73
2022/11/01 01:38:52;;;;;;;16.95;5.00;;;14.80;99.90;;;;;;5056600;28;20139;-74
2022/11/01 01:44:40;;;;;;;11.23;4.20;;;14.80;99.90;;;;;;5073923;28;20427;-74
2022/11/01 01:47:08;;;;;;;16.38;4.55;;;14.80;99.90;;;;;;5074104;28;20493;-75
2022/11/01 01:49:34;;;;;;;13.30;4.93;;;14.90;99.90;;;;;;5056288;28;20066;-71
2022/11/01 01:52:00;;;;;;;12.40;4.55;;;14.90;99.90;;;;;;5075171;28;20460;-71
2022/11/01 01:54:25;;;;;;;11.63;4.93;;;14.90;99.90;;;;;;5074484;28;20067;-72
2022/11/01 01:56:51;;;;;;;15.90;4.90;;;15.00;99.90;;;;;;5073237;28;20052;-73
2022/11/01 01:59:17;;;;;;;14.27;4.57;;;15.10;99.90;;;;;;5056829;28;20131;-71
2022/11/01 02:01:43;;;;;;;14.52;5.38;;;15.00;99.90;;;;;;5073344;28;20161;-72
2022/11/01 02:04:29;;;;;;;18.17;5.32;;;15.00;99.90;;;;;;5072791;28;20054;-72
2022/11/01 02:06:54;;;;;;;17.48;4.95;;;15.00;99.90;;;;;;5056849;28;20064;-81
2022/11/01 02:09:20;;;;;;;13.50;4.53;;;15.00;99.90;;;;;;5072783;28;20052;-73
2022/11/01 02:11:46;;;;;;;11.57;3.43;;;15.00;99.90;;;;;;5073891;28;20044;-71
2022/11/01 02:14:12;;;;;;;14.80;5.18;;;15.10;99.90;;;;;;5074024;28;20155;-71
2022/11/01 02:16:47;;;;;;;11.45;4.68;;;15.10;99.90;;;;;;5074543;28;20048;-73
2022/11/01 02:19:43;;;;;;;16.65;4.65;;;15.10;99.90;;;;;;5073984;28;20090;-73
2022/11/01 02:22:31;;;;;;;12.82;4.50;;;15.10;99.90;;;;;;5056439;28;20059;-73
2022/11/01 02:24:56;;;;;;;12.75;4.35;;;15.10;99.90;;;;;;5074671;28;20056;-75
2022/11/01 02:27:31;;;;;;;15.07;4.60;;;15.10;99.90;;;;;;5073404;28;20044;-72
2022/11/01 02:30:19;;;;;;;17.60;5.07;;;15.00;99.90;;;;;;5073052;28;20135;-73
2022/11/01 02:33:08;;;;;;;15.65;5.32;;;15.00;99.90;;;;;;5075745;28;20063;-76
2022/11/01 02:35:50;;;;;;;11.27;4.68;;;15.00;99.90;;;;;;5057039;28;20497;-73
2022/11/01 02:38:54;;;;;;;18.23;4.95;;;15.00;99.90;;;;;;5057429;28;20090;-73
2022/11/01 02:41:24;;;;;;;18.75;4.68;;;15.00;99.90;;;;;;5039656;28;20095;-75
2022/11/01 02:44:02;;;;;;;13.55;4.25;;;15.00;99.90;;;;;;5073825;28;20044;-76
2022/11/01 02:49:23;;;;;;;13.73;4.07;;;15.10;99.90;;;;;;5072289;28;20048;-79
2022/11/01 02:51:51;;;;;;;16.00;4.38;;;15.10;99.90;;;;;;5072524;28;20052;-75
2022/11/01 02:54:31;;;;;;;12.02;4.22;;;15.20;99.90;;;;;;5073538;28;20045;-72
2022/11/01 02:57:30;;;;;;;16.83;4.45;;;15.20;99.90;;;;;;5072254;28;20040;-73
2022/11/01 03:00:03;;;;;;;13.25;4.30;;;15.30;99.90;;;;;;5069394;28;20404;-75
2022/11/01 03:02:43;;;;;;;12.20;3.95;;;15.30;99.90;;;;;;5073437;28;20055;-74
2022/11/01 03:05:17;;;;;;;15.57;4.72;;;15.40;99.90;;;;;;5073231;28;20052;-74
2022/11/01 03:07:47;;;;;;;11.10;4.32;;;15.40;99.90;;;;;;5075238;28;20045;-73
2022/11/01 03:10:13;;;;;;;16.48;4.53;;;15.70;99.90;;;;;;5073574;28;20441;-74
2022/11/01 03:12:53;;;;;;;11.32;3.95;;;15.40;99.90;;;;;;5074092;28;20048;-75
2022/11/01 03:15:27;;;;;;;12.43;4.30;;;15.50;99.90;;;;;;5073440;28;20055;-73
2022/11/01 03:18:00;;;;;;;14.32;4.57;;;15.60;99.90;;;;;;5073579;28;20064;-73
2022/11/01 03:21:14;;;;;;;14.95;4.32;;;15.50;99.90;;;;;;5072445;28;20119;-72
2022/11/01 03:23:53;;;;;;;15.35;4.20;;;15.50;99.90;;;;;;5045523;28;20392;-75
2022/11/01 03:26:26;;;;;;;11.52;4.07;;;15.40;99.90;;;;;;5072858;28;20048;-71
2022/11/01 03:29:01;;;;;;;14.30;4.57;;;15.30;99.90;;;;;;5072266;28;20047;-75
2022/11/01 03:31:30;;;;;;;14.05;4.20;;;15.30;99.90;;;;;;5073062;28;20044;-78
2022/11/01 03:34:00;;;;;;;12.18;4.20;;;15.20;99.90;;;;;;5071508;28;20127;-73
2022/11/01 03:36:34;;;;;;;13.43;4.35;;;15.10;99.90;;;;;;5072438;28;20056;-74
2022/11/01 03:39:24;;;;;;;15.35;4.40;;;15.10;99.90;;;;;;5072781;28;20056;-71
2022/11/01 03:41:55;;;;;;;15.68;4.40;;;15.20;99.90;;;;;;5054917;28;20052;-74
2022/11/01 03:44:21;;;;;;;8.93;4.38;;;15.00;99.90;;;;;;5072485;28;20048;-74
2022/11/01 03:46:48;;;;;;;11.68;4.53;;;15.00;99.90;;;;;;5072378;28;20056;-74
2022/11/01 03:49:18;;;;;;;;;;;14.90;99.90;;;;;;5071317;28;20049;-73
2022/11/01 03:51:44;;;;;;;11.13;3.80;;;15.00;99.90;;;;;;5071203;28;19942;-74
2022/11/01 03:54:09;;;;;;;14.80;4.65;;;15.00;99.90;;;;;;5072380;28;20461;-77
2022/11/01 03:56:39;;;;;;;12.75;4.30;;;15.00;99.90;;;;;;5054821;28;20060;-74
2022/11/01 03:59:06;;;;;;;14.48;4.47;;;15.00;99.90;;;;;;5072668;28;20052;-73
2022/11/01 04:01:33;;;;;;;11.88;4.35;;;15.10;99.90;;;;;;5071585;28;20044;-75
2022/11/01 04:03:59;;;;;;;12.15;4.07;;;15.10;99.90;;;;;;5072649;28;20041;-74
2022/11/01 04:06:24;;;;;;;13.23;4.25;;;15.10;99.90;;;;;;5073063;28;20144;-75
2022/11/01 04:08:51;;;;;;;10.95;4.10;;;15.10;99.90;;;;;;5072596;28;20079;-73
2022/11/01 04:11:16;;;;;;;14.73;5.07;;;15.10;99.90;;;;;;5072484;28;20044;-72
2022/11/01 04:13:42;;;;;;;14.32;4.30;;;15.20;99.90;;;;;;5071621;28;20120;-73
2022/11/01 04:21:38;;;;;;;15.90;4.50;;;15.20;99.90;;;;;;5073032;28;20286;-72
2022/11/01 04:24:04;;;;;;;11.30;4.35;;;15.40;99.90;;;;;;5072237;28;20370;-74
2022/11/01 04:26:30;;;;;;;10.85;4.10;;;15.40;99.90;;;;;;5072286;28;20131;-76
2022/11/01 04:28:55;;;;;;;9.32;3.78;;;15.30;99.90;;;;;;5072477;28;20037;-73
2022/11/01 04:31:33;;;;;;;12.43;3.67;;;15.40;99.90;;;;;;5072453;28;20071;-72
2022/11/01 04:34:00;;;;;;;13.80;4.00;;;15.30;99.90;;;;;;5072427;28;20057;-73
2022/11/01 04:36:26;;;;;;;10.70;4.00;;;15.30;99.90;;;;;;5072985;28;20113;-74
2022/11/01 04:38:54;;;;;;;12.13;4.93;;;15.30;99.90;;;;;;5071735;28;20056;-74
2022/11/01 04:41:21;;;;;;;13.65;4.30;;;15.20;99.90;;;;;;5071748;28;20063;-73
2022/11/01 04:43:48;;;;;;;13.10;3.67;;;15.30;99.90;;;;;;5070873;28;20501;-74
2022/11/01 04:46:15;;;;;;;10.55;3.92;;;15.30;99.90;;;;;;5072048;28;20052;-75
2022/11/01 04:48:41;;;;;;;11.05;4.30;;;15.30;99.90;;;;;;5071876;28;20049;-74
2022/11/01 04:51:07;;;;;;;11.70;4.15;;;15.30;99.90;;;;;;5071163;28;20072;-73
2022/11/01 04:53:34;;;;;;;9.73;4.10;;;15.40;99.90;;;;;;5055472;28;20064;-73
2022/11/01 04:56:02;;;;;;;11.60;3.72;;;15.40;99.90;;;;;;5071170;28;20098;-72
2022/11/01 04:58:28;;;;;;;10.38;3.30;;;15.40;99.90;;;;;;5072283;28;20454;-71
2022/11/01 05:00:54;;;;;;;10.27;3.43;;;15.40;99.90;;;;;;5070566;28;20044;-73
2022/11/01 05:03:20;;;;;;;10.00;3.83;;;15.40;99.90;;;;;;5054179;28;20131;-76
2022/11/01 05:05:46;;;;;;;13.95;4.28;;;15.50;99.90;;;;;;5053751;28;20079;-73
2022/11/01 05:08:12;;;;;;;11.88;3.53;;;15.50;99.90;;;;;;5073115;28;20051;-72
2022/11/01 05:10:41;;;;;;;12.48;3.80;;;15.50;99.90;;;;;;5076407;28;20044;-74
2022/11/01 05:13:08;;;;;;;14.13;3.88;;;15.50;99.90;;;;;;5070660;28;20044;-72
2022/11/01 05:15:35;;;;;;;;;;;15.50;99.90;;;;;;5054069;28;20044;-73
2022/11/01 05:18:01;;;;;;;12.23;3.85;;;15.50;99.90;;;;;;5071540;28;20264;-72
2022/11/01 05:20:28;;;;;;;9.90;3.60;;;15.40;99.90;;;;;;5070921;28;20045;-73
2022/11/01 05:23:01;;;;;;;16.60;3.90;;;15.50;99.90;;;;;;5070859;28;20045;-73
2022/11/01 05:25:28;;;;;;;8.23;3.25;;;15.50;99.90;;;;;;5073634;28;20207;-73
2022/11/01 05:28:04;;;;;;;10.80;3.38;;;15.40;99.90;;;;;;5073982;28;20060;-73
2022/11/01 05:30:30;;;;;;;12.40;3.50;;;15.40;99.90;;;;;;5075052;28;20052;-72
2022/11/01 05:33:00;;;;;;;12.38;4.03;;;15.30;99.90;;;;;;5073774;28;20063;-75
2022/11/01 05:35:27;;;;;;;8.85;3.22;;;15.30;99.90;;;;;;5075548;28;20056;-77
2022/11/01 05:37:54;;;;;;;9.27;2.95;;;15.40;99.90;;;;;;5074333;28;20408;-75
2022/11/01 05:40:20;;;;;;;8.98;3.22;;;15.40;99.90;;;;;;5074979;28;20144;-73
2022/11/01 05:42:46;;;;;;;8.95;2.67;;;15.30;99.90;;;;;;5074908;28;20559;-75
2022/11/01 05:45:12;;;;;;;8.98;2.85;;;15.40;99.90;;;;;;5074006;28;20058;-74
2022/11/01 05:47:40;;;;;;;13.13;3.00;;;15.30;99.90;;;;;;5074915;28;20442;-74
2022/11/01 05:50:10;;;;;;;9.65;2.63;;;15.40;99.90;;;;;;5074542;28;20090;-73
2022/11/01 05:52:37;;;;;;;9.85;2.70;;;15.40;99.90;;;;;;5074680;28;20052;-74
2022/11/01 05:55:03;;;;;;;12.47;2.50;;;15.40;99.90;;;;;;5073635;28;20049;-72
2022/11/01 05:57:29;;;;;;;8.43;2.40;;;15.30;99.90;;;;;;5073191;28;20043;-77
2022/11/01 05:59:54;;;;;;;8.07;2.58;;;15.20;99.90;;;;;;5074553;28;20393;-74
2022/11/01 06:02:20;;;;;;;5.45;1.80;;;15.20;99.90;;;;;;5074115;28;20118;-74
2022/11/01 06:04:46;;;;;;;5.95;1.80;;;15.30;99.90;;;;;;5056477;28;20059;-74
2022/11/01 06:07:12;;;;;;;7.22;1.58;;;15.50;99.90;;;;;;5074508;28;20446;-72
2022/11/01 06:09:37;;;;;;;7.13;1.52;;;15.40;99.90;;;;;;5074005;28;20496;-76
2022/11/01 06:12:04;;;;;;;6.85;1.60;;;15.20;99.90;;;;;;5056620;28;20051;-73
2022/11/01 06:14:30;;;;;;;6.22;1.63;;;15.00;99.90;;;;;;5073969;28;20102;-75
2022/11/01 06:16:55;;;;;;;3.72;1.20;;;14.90;99.90;;;;;;5073657;28;20488;-78
2022/11/01 06:19:21;;;;;;;5.32;0.73;;;14.90;99.90;;;;;;5056219;28;20045;-72
2022/11/01 06:21:47;;;;;;;3.45;0.50;;;14.80;99.90;;;;;;5074066;28;20041;-73
2022/11/01 06:24:13;;;;;;;5.72;0.75;;;14.70;99.90;;;;;;5074206;28;20075;-72
2022/11/01 06:26:38;;;;;;;3.93;0.60;;;14.60;99.90;;;;;;5072950;28;20055;-82
2022/11/01 06:29:05;;;;;;;3.70;0.82;;;14.40;99.90;;;;;;5074080;28;20119;-71
2022/11/01 06:31:31;;;;;;;2.80;0.60;;;14.30;99.90;;;;;;5073606;28;20575;-71
2022/11/01 06:33:56;;;;;;;3.23;0.50;;;14.20;99.90;;;;;;5073915;28;20132;-78
2022/11/01 06:36:22;;;;;;;3.70;0.40;;;14.20;99.90;;;;;;5056401;28;20087;-72
2022/11/01 06:38:48;;;;;;;5.22;0.60;;;14.30;99.90;;;;;;5072896;28;20045;-72
2022/11/01 06:41:14;;;;;;;4.78;0.60;;;14.20;99.90;;;;;;5076703;28;20472;-73
2022/11/01 06:43:40;;;;;;;2.45;0.50;;;14.10;99.90;;;;;;5076926;28;20056;-74
2022/11/01 06:46:06;;;;;;;8.32;0.50;;;14.00;99.90;;;;;;5076663;28;20045;-73
2022/11/01 06:48:33;;;;;;;2.58;0.40;;;14.00;99.90;;;;;;5076234;28;20037;-73
2022/11/01 06:51:01;;;;;;;5.20;0.30;;;13.90;99.90;;;;;;5076499;28;20052;-74
2022/11/01 06:53:27;;;;;;;3.33;0.40;;;13.90;99.90;;;;;;5080321;28;20052;-74
2022/11/01 06:55:53;;;;;;;3.10;0.40;;;13.90;99.90;;;;;;5084177;28;20124;-73
2022/11/01 06:58:18;;;;;;;3.53;0.30;;;13.80;99.90;;;;;;5078771;28;20443;-72
2022/11/01 07:00:44;;;;;;;2.97;0.40;;;13.70;99.90;;;;;;5077741;28;20059;-72
2022/11/01 07:03:13;;;;;;;4.15;0.40;;;13.50;99.90;;;;;;5074749;28;20048;-70
2022/11/01 07:05:39;;;;;;;2.80;0.40;;;13.50;99.90;;;;;;5073390;28;20415;-80
2022/11/01 07:08:07;;;;;;;4.07;0.60;;;13.50;99.90;;;;;;5073336;28;20048;-71
2022/11/01 07:10:34;;;;;;;8.70;0.57;;;13.30;99.90;;;;;;5071925;28;20615;-72
2022/11/01 07:13:02;;;;;;;2.55;0.30;;;13.30;99.90;;;;;;5055788;28;20054;-70
2022/11/01 07:15:28;;;;;;;5.43;0.50;;;13.30;99.90;;;;;;5071782;28;20056;-73
2022/11/01 07:17:57;;;;;;;4.97;0.60;;;13.20;99.90;;;;;;5072098;28;20062;-71
2022/11/01 07:20:28;;;;;;;4.30;0.50;;;13.20;99.90;;;;;;5039025;28;20080;-72
2022/11/01 07:23:02;;;;;;;2.92;0.50;;;13.20;99.90;;;;;;5072756;28;20044;-71
2022/11/01 07:25:29;;;;;;;2.53;0.52;;;13.20;99.90;;;;;;5073686;28;20048;-71
2022/11/01 07:27:55;;;;;;;5.22;0.50;;;13.30;99.90;;;;;;5073306;28;20047;-71
2022/11/01 07:30:21;;;;;;;7.63;0.70;;;13.40;99.90;;;;;;5072924;28;20040;-73
2022/11/01 07:32:47;;;;;;;5.95;0.40;;;13.50;99.90;;;;;;5071284;28;20480;-72
2022/11/01 07:35:14;;;;;;;5.85;0.47;;;13.70;99.90;;;;;;5054702;28;20500;-74
2022/11/01 07:37:40;;;;;;;7.95;0.60;;;13.70;99.90;;;;;;5070994;28;20052;-71
2022/11/01 07:40:06;;;;;;;4.10;0.33;;;13.80;99.90;;;;;;5072751;28;20508;-71
2022/11/01 07:42:31;;;;;;;4.00;0.40;;;13.80;99.90;;;;;;5071276;28;20051;-72
2022/11/01 07:44:57;;;;;;;5.18;0.43;;;13.80;99.90;;;;;;5071050;28;20647;-70
2022/11/01 07:47:23;;;;;;;9.30;0.50;;;13.90;99.90;;;;;;5054124;28;20041;-69
2022/11/01 07:49:49;;;;;;;4.75;0.40;;;13.90;99.90;;;;;;5054753;28;20057;-70
2022/11/01 07:52:18;;;;;;;6.37;0.50;;;14.00;99.90;;;;;;5072117;28;20457;-71
2022/11/01 07:54:44;;;;;;;9.77;0.60;;;14.00;99.90;;;;;;5056137;28;20278;-74
2022/11/01 07:57:10;;;;;;;4.28;0.50;;;14.10;99.90;;;;;;5054847;28;20051;-73
2022/11/01 07:59:36;;;;;;;11.63;0.68;;;14.00;99.90;;;;;;5072569;28;20342;-77
2022/11/01 08:02:01;;;;;;;14.35;0.55;;;14.00;99.90;;;;;;5054797;28;20477;-72
2022/11/01 08:04:27;;;;;;;8.52;0.75;;;14.00;99.90;;;;;;5054757;28;20041;-72
2022/11/01 08:06:53;;;;;;;9.38;0.50;;;14.00;99.90;;;;;;5072457;28;20044;-74
2022/11/01 08:09:20;;;;;;;10.38;0.63;;;13.90;99.90;;;;;;5038325;28;20526;-73
2022/11/01 08:11:46;;;;;;;6.47;0.80;;;14.00;99.90;;;;;;5072626;28;20101;-73
2022/11/01 08:14:12;;;;;;;11.77;0.90;;;14.00;99.90;;;;;;5073097;28;20064;-74
2022/11/01 08:16:38;;;;;;;13.55;1.05;;;14.00;99.90;;;;;;5071240;28;20040;-72
2022/11/01 08:19:04;;;;;;;11.05;0.77;;;14.00;99.90;;;;;;5074146;28;20048;-72
2022/11/01 08:21:29;;;;;;;14.05;0.90;;;14.00;99.90;;;;;;5038504;28;20429;-72
2022/11/01 08:23:55;;;;;;;7.25;0.75;;;14.00;99.90;;;;;;5071035;28;20573;-72
2022/11/01 08:26:21;;;;;;;12.05;0.80;;;14.10;99.90;;;;;;5070981;28;20056;-71
2022/11/01 08:28:46;;;;;;;11.40;1.20;;;14.10;99.90;;;;;;5071003;28;20048;-73
2022/11/01 08:31:12;;;;;;;10.93;0.60;;;14.20;99.90;;;;;;5072184;28;20049;-71
2022/11/01 08:33:38;;;;;;;9.20;1.15;;;14.20;99.90;;;;;;5070690;28;20135;-73
2022/11/01 08:36:04;;;;;;;8.57;0.82;;;14.20;99.90;;;;;;5072217;28;20049;-74
2022/11/01 08:38:30;;;;;;;10.50;0.80;;;14.20;99.90;;;;;;5070622;28;20103;-73
2022/11/01 08:40:55;;;;;;;7.78;0.90;;;14.20;99.90;;;;;;5071641;28;20048;-76
2022/11/01 08:43:21;;;;;;;14.52;0.90;;;14.20;99.90;;;;;;5054595;28;20044;-71
2022/11/01 08:45:47;;;;;;;14.82;1.10;;;14.30;99.90;;;;;;5054562;28;20043;-70
2022/11/01 08:48:13;;;;;;;13.40;0.82;;;14.30;99.90;;;;;;5053732;28;20131;-72
2022/11/01 08:50:39;;;;;;;13.75;1.42;;;14.30;99.90;;;;;;5071984;28;20047;-69
2022/11/01 08:53:07;;;;;;;9.88;0.70;;;14.20;99.90;;;;;;5070807;28;20113;-71
2022/11/01 08:55:35;;;;;;;11.85;0.90;;;14.40;99.90;;;;;;5072798;28;20056;-72
2022/11/01 08:58:01;;;;;;;17.08;1.10;;;14.40;99.90;;;;;;5071650;28;20049;-71
2022/11/01 09:00:27;;;;;;;15.65;0.93;;;14.40;99.90;;;;;;5057786;28;20128;-71
2022/11/01 09:02:52;;;;;;;7.35;0.82;;;14.40;99.90;;;;;;5074089;28;20075;-72
2022/11/01 09:05:18;;;;;;;15.00;0.90;;;14.40;99.90;;;;;;5058481;28;20081;-71
2022/11/01 09:07:44;;;;;;;22.70;1.05;;;14.40;99.90;;;;;;5074385;28;20044;-72
2022/11/01 09:10:11;;;;;;;17.13;1.13;;;14.40;99.90;;;;;;5057862;28;20161;-72
2022/11/01 09:12:37;;;;;;;14.38;0.98;;;14.40;99.90;;;;;;5075253;28;20044;-72
2022/11/01 09:15:04;;;;;;;15.40;0.90;;;14.50;99.90;;;;;;5074082;28;20087;-70
2022/11/01 09:17:30;;;;;;;11.52;0.95;;;14.50;99.90;;;;;;5075446;28;20143;-71
2022/11/01 09:19:56;;;;;;;10.27;0.70;;;14.50;99.90;;;;;;5057628;28;20341;-71
2022/11/01 09:22:22;;;;;;;7.88;0.57;;;14.60;99.90;;;;;;5074290;28;20044;-71
2022/11/01 09:24:48;;;;;;;10.77;1.00;;;14.50;99.90;;;;;;5075043;28;20488;-72
2022/11/01 09:27:15;;;;;;;11.63;0.90;;;14.50;99.90;;;;;;5073960;28;20054;-73
2022/11/01 09:29:40;;;;;;;16.08;1.70;;;14.60;99.90;;;;;;5074023;28;20049;-74
2022/11/01 09:32:06;;;;;;;14.02;1.52;;;14.60;99.90;;;;;;5074758;28;20047;-72
2022/11/01 09:34:32;;;;;;;10.20;0.90;;;14.60;99.90;;;;;;5057223;28;20064;-72
2022/11/01 09:36:58;;;;;;;11.83;1.17;;;14.60;99.90;;;;;;5073655;28;20131;-72
2022/11/01 09:39:24;;;;;;;13.23;0.98;;;14.60;99.90;;;;;;5075557;28;20190;-73
2022/11/01 09:42:01;;;;;;;15.20;1.10;;;14.60;99.90;;;;;;5074813;28;20049;-74
2022/11/01 09:44:31;;;;;;;12.32;0.90;;;14.60;99.90;;;;;;5075529;28;20421;-72
2022/11/01 09:47:21;;;;;;;9.82;0.95;;;14.60;99.90;;;;;;5074820;28;20053;-78
2022/11/01 09:49:54;;;;;;;10.73;0.93;;;14.70;99.90;;;;;;5074894;28;20048;-72
2022/11/01 09:52:22;;;;;;;17.67;0.73;;;14.80;99.90;;;;;;5075098;28;20049;-73
2022/11/01 09:54:48;;;;;;;15.35;1.15;;;14.80;99.90;;;;;;5074662;28;20052;-72
2022/11/01 09:57:23;;;;;;;13.35;1.20;;;14.80;99.90;;;;;;5075167;28;20040;-70
2022/11/01 10:00:00;;;;;;;17.05;1.45;;;14.90;99.90;;;;;;5075064;28;20394;-72
2022/11/01 10:02:49;;;;;;;10.88;1.00;;;14.90;99.90;;;;;;5073519;28;20067;-71
2022/11/01 10:05:14;;;;;;;13.63;0.93;;;14.90;99.90;;;;;;5074474;28;20048;-79
2022/11/01 10:07:58;;;;;;;14.18;1.17;;;14.90;99.90;;;;;;5074392;28;20257;-71
2022/11/01 10:10:41;;;;;;;18.77;1.35;;;14.90;99.90;;;;;;5074146;28;20072;-72
2022/11/01 10:13:25;;;;;;;16.70;1.10;;;14.90;99.90;;;;;;5074230;28;20193;-72
2022/11/01 10:16:26;;;;;;;14.23;1.20;;;14.90;99.90;;;;;;5074713;28;20044;-73
2022/11/01 10:19:13;;;;;;;11.15;1.58;;;15.00;99.90;;;;;;5073644;28;20329;-73
2022/11/01 10:21:43;;;;;;;13.23;1.10;;;15.00;99.90;;;;;;5074675;28;20411;-73
2022/11/01 10:24:20;;;;;;;11.98;0.90;;;15.00;99.90;;;;;;5074241;28;20056;-71
2022/11/01 10:26:49;;;;;;;14.10;1.33;;;15.10;99.90;;;;;;5056829;28;20342;-72
2022/11/01 10:29:52;;;;;;;14.88;1.10;;;15.20;99.90;;;;;;5073943;28;20059;-71
2022/11/01 10:32:42;;;;;;;12.82;1.30;;;15.30;99.90;;;;;;5073919;28;20063;-73
2022/11/01 10:35:22;;;;;;;14.63;1.33;;;15.30;99.90;;;;;;5073557;28;20044;-74
2022/11/01 10:38:07;;;;;;;15.70;0.93;;;15.20;99.90;;;;;;5074488;28;20063;-74
2022/11/01 10:40:40;;;;;;;14.65;1.13;;;15.20;99.90;;;;;;5075540;28;20052;-72
2022/11/01 10:48:49;;;;;;;12.57;0.80;;;15.30;99.90;;;;;;5120511;27;1979970;-71
2022/11/01 10:51:17;;;;;;;;;;;15.40;99.90;;;;;;5142830;27;20400;-73
2022/11/01 10:53:48;;;;;;;17.58;1.55;;;15.50;99.90;;;;;;5151707;27;19919;-73
2022/11/01 10:56:23;;;;;;;12.43;1.08;;;15.50;99.90;;;;;;5132845;27;20043;-75
2022/11/01 10:59:19;;;;;;;16.70;1.02;;;15.60;99.90;;;;;;5149103;27;20111;-70
2022/11/01 11:01:46;;;;;;;;;;;15.70;99.90;;;;;;5145023;27;20490;-70
2022/11/01 11:04:15;;;;;;;14.43;1.80;;;15.70;99.90;;;;;;5129220;27;19920;-71
2022/11/01 11:06:42;;;;;;;19.88;2.45;;;15.70;99.90;;;;;;5153055;27;20041;-70
2022/11/01 11:09:34;;;;;;;15.90;1.20;;;15.80;99.90;;;;;;5131661;27;20047;-69
2022/11/01 11:12:13;;;;;;;15.48;1.65;;;15.90;99.90;;;;;;5145057;27;20397;-71
2022/11/01 11:14:41;;;;;;;20.42;2.20;;;16.00;99.90;;;;;;5131038;27;20043;-72
2022/11/01 11:17:27;;;;;;;15.35;1.38;;;15.90;99.90;;;;;;5113134;27;20047;-71
2022/11/01 11:19:54;;;;;;;15.10;1.23;;;15.90;99.90;;;;;;5122310;27;20050;-71
2022/11/01 11:22:22;;;;;;;16.83;1.17;;;16.00;99.90;;;;;;5163280;27;20531;-71
2022/11/01 11:24:49;;;;;;;10.60;0.80;;;16.00;99.90;;;;;;5133114;27;20061;-74
2022/11/01 11:27:24;;;;;;;14.20;1.05;;;15.90;99.90;;;;;;5155819;27;20509;-73
2022/11/01 11:29:53;;;;;;;12.68;1.38;;;15.90;99.90;;;;;;5149102;27;20043;-70
2022/11/01 11:32:25;;;;;;;13.98;1.25;;;16.00;99.90;;;;;;5162339;27;20042;-71
2022/11/01 11:34:57;;;;;;;14.70;1.15;;;16.10;99.90;;;;;;5135487;27;20452;-72
2022/11/01 11:37:28;;;;;;;11.93;1.10;;;16.10;99.90;;;;;;5137081;27;20074;-74
2022/11/01 11:40:23;;;;;;;10.80;1.00;;;16.10;99.90;;;;;;5134037;27;20038;-72
2022/11/01 11:42:51;;;;;;;12.63;1.25;;;16.10;99.90;;;;;;5154110;27;20065;-75
2022/11/01 11:45:26;;;;;;;17.73;1.50;;;16.00;99.90;;;;;;5130140;27;20439;-75
2022/11/01 11:47:55;;;;;;;15.60;0.80;;;16.00;99.90;;;;;;5147609;27;20063;-72
2022/11/01 11:50:22;;;;;;;16.00;1.55;;;15.90;99.90;;;;;;5136498;27;20391;-73
2022/11/01 11:52:55;;;;;;;11.07;1.55;;;15.90;99.90;;;;;;5148789;27;20047;-70
2022/11/01 11:55:41;;;;;;;12.07;1.08;;;15.90;99.90;;;;;;5147885;27;20050;-71
2022/11/01 11:58:28;;;;;;;13.13;0.90;;;15.90;99.90;;;;;;5110165;27;20057;-72
2022/11/01 12:01:22;;;;;;;12.00;1.15;;;15.80;99.90;;;;;;5116490;27;20044;-72
2022/11/01 12:03:53;;;;;;;11.13;1.10;;;15.80;99.90;;;;;;5133808;27;20078;-73
2022/11/01 12:06:27;;;;;;;11.43;1.10;;;15.90;99.90;;;;;;5134303;27;20055;-77
2022/11/01 12:08:58;;;;;;;12.43;1.30;;;15.80;99.90;;;;;;5140222;27;20461;-72
2022/11/01 12:11:36;;;;;;;14.02;1.38;;;15.70;99.90;;;;;;5155887;27;20122;-72
2022/11/01 12:14:06;;;;;;;15.20;1.48;;;15.80;99.90;;;;;;5115542;27;20057;-74
2022/11/01 12:16:40;;;;;;;13.63;1.20;;;15.70;99.90;;;;;;5151401;27;20047;-71
2022/11/01 12:19:25;;;;;;;11.10;1.02;;;15.80;99.90;;;;;;5154836;27;20451;-71
2022/11/01 12:21:50;;;;;;;8.85;0.82;;;15.90;99.90;;;;;;5156146;27;20054;-75
2022/11/01 12:24:44;;;;;;;16.60;1.20;;;15.90;99.90;;;;;;5151599;27;20039;-73
2022/11/01 12:27:15;;;;;;;9.75;0.82;;;15.80;99.90;;;;;;5148219;27;20426;-73
2022/11/01 12:29:49;;;;;;;11.73;0.88;;;15.80;99.90;;;;;;5156168;27;20054;-73
2022/11/01 12:32:24;;;;;;;13.90;1.10;;;15.80;99.90;;;;;;5152831;27;20046;-73
2022/11/01 12:34:51;;;;;;;13.50;1.02;;;15.80;99.90;;;;;;5111959;27;20478;-73
2022/11/01 12:37:50;;;;;;;9.13;0.80;;;15.80;99.90;;;;;;5109861;27;20214;-72
2022/11/01 12:40:40;;;;;;;9.82;0.80;;;15.80;99.90;;;;;;5099138;27;20047;-73
2022/11/01 12:43:25;;;;;;;10.27;0.90;;;15.80;99.90;;;;;;5134358;27;20147;-73
2022/11/01 12:46:14;;;;;;;8.43;0.82;;;15.90;99.90;;;;;;5141698;27;20047;-72
2022/11/01 12:48:45;;;;;;;8.35;0.77;;;15.90;99.90;;;;;;5110578;27;20349;-74
2022/11/01 12:51:20;;;;;;;12.93;0.95;;;15.90;99.90;;;;;;5113190;27;20138;-72
2022/11/01 12:53:54;;;;;;;11.60;1.35;;;15.90;99.90;;;;;;5111893;28;20062;-74
2022/11/01 12:56:19;;;;;;;11.35;1.25;;;15.90;99.90;;;;;;5114156;28;20127;-73
2022/11/01 12:58:45;;;;;;;16.95;1.08;;;15.90;99.90;;;;;;5114355;27;20142;-74
2022/11/01 13:01:41;;;;;;;11.55;1.00;;;15.90;99.90;;;;;;5130940;27;20058;-75
2022/11/01 13:04:25;;;;;;;10.30;0.70;;;16.00;99.90;;;;;;5132789;27;20096;-73
2022/11/01 13:07:10;;;;;;;13.07;1.05;;;15.90;99.90;;;;;;5127164;27;20047;-71
2022/11/01 13:10:06;;;;;;;10.85;1.02;;;15.90;99.90;;;;;;5117248;27;20053;-72
2022/11/01 13:12:52;;;;;;;19.30;1.20;;;16.00;99.90;;;;;;5095978;28;20047;-74
2022/11/01 13:15:40;;;;;;;14.02;1.13;;;16.00;99.90;;;;;;5111496;27;20096;-73